Union, SC (29379)

8:08 PM EDT on August 28, 2016 (GMT -0400)
West Springs | | Change Station

Elev 738 ft 34.78 °N, 81.80 °W | Updated 7 minutes ago

Clear
Clear
80.1 °F
Feels Like 83 °F
N
0.0
Wind Variable Wind from NNW

Today
High -- | Low -- °F
--% Chance of Precip.
Yesterday
High -- | Low -- °F
Precip. -- in
Pressure 30.10 in
Visibility 10.0 miles
Clouds Clear
Heat Index 83 °F
Dew Point 68 °F
Humidity 67%
Rainfall 0.00 in
Snow Depth Not available.
6:56 AM 7:57 PM
Waning Crescent, 12% visible
METAR KLUX 282355Z AUTO 04004KT 10SM CLR 28/18 A3010 RMK AO2
Pressure 30.10 in
Visibility 10.0 miles
Clouds Clear
Heat Index 83 °F
Dew Point 68 °F
Humidity 67%
Rainfall 0.00 in
Snow Depth Not available.
6:56 AM 7:57 PM
Waning Crescent, 12% visible
METAR KLUX 282355Z AUTO 04004KT 10SM CLR 28/18 A3010 RMK AO2

10-Day Weather Forecast

Almanac

Astronomy

Aug. 28, 2016 Rise Set
Actual Time
Civil Twilight
Nautical Twilight
Astronomical Twilight
Moon
Length of Visible Light
Length of Day
Tomorrow will be .
, % of the Moon is Illuminated

Today's Extremes

State Highs State Lows

Community

WunderPhotos

Upload Photos

1,935,726 photos uploaded!

WunderBlog® & News

Nearby

Air Quality

  Air Quality AQ Index Pollutant
Not available.

Snow Depth

Station Depth Elevation

Earthquake Activity

City Distance Mag. Time & Date
Minimum magnitude displayed is 2.5.

Coastal Water Temperatures

Place Temperature

Stations

Nearby Weather Stations

Station Location Temp. Windchill Dew Point Humidity Wind Precip. Elev Updated Type
                   

Watches & Warnings

There are currently no watches in effect.